Time;durP1;ratioP1;P1;durP2;ratioP2;P2;SDS_P1;SDS_P2;PMS_P1;PMS_P2;Temp;Humidity;BMP_temperature;BMP_pressure;BME280_temperature;BME280_humidity;BME280_pressure;Samples;Min_cycle;Max_cycle;Signal;HPM_P1;HPM_P2
2024/03/13 00:02:22;;;;;;;;;;;6.30;99.90;;;;;;21062103;28;19916;-78
2024/03/13 00:12:24;;;;;;;;;;;6.30;99.90;;;;;;21071152;28;19923;-79
2024/03/13 00:22:25;;;;;;;;;;;6.20;99.90;;;;;;21072483;28;19924;-79
2024/03/13 00:32:25;;;;;;;;;;;6.30;99.90;;;;;;21089325;28;19955;-78
2024/03/13 00:42:26;;;;;;;;;;;6.20;99.90;;;;;;21086883;28;19924;-78
2024/03/13 00:52:28;;;;;;;;;;;6.10;99.90;;;;;;21062900;28;20399;-78
2024/03/13 01:02:30;;;;;;;;;;;6.20;99.90;;;;;;21077981;28;19927;-78
2024/03/13 01:12:31;;;;;;;;;;;6.20;99.90;;;;;;21083881;28;19916;-78
2024/03/13 01:22:34;;;;;;;;;;;6.20;99.90;;;;;;21063716;28;19923;-78
2024/03/13 01:32:35;;;;;;;;;;;6.10;99.90;;;;;;21064993;28;19955;-78
2024/03/13 02:03:16;;;;;;;;;;;6.00;99.90;;;;;;21055570;28;19916;-78
2024/03/13 02:13:18;;;;;;;;;;;6.00;99.90;;;;;;21051909;28;20352;-78
2024/03/13 02:23:27;;;;;;;;;;;6.00;99.90;;;;;;21064589;28;19924;-78
2024/03/13 02:33:29;;;;;;;;;;;5.90;99.90;;;;;;21058177;28;20189;-78
2024/03/13 02:43:32;;;;;;;;;;;5.90;99.90;;;;;;21043825;28;20156;-78
2024/03/13 02:53:32;;;;;;;;;;;5.90;99.90;;;;;;21031098;28;20012;-78
2024/03/13 03:03:33;;;;;;;;;;;5.90;99.90;;;;;;21032370;28;19938;-78
2024/03/13 03:13:34;;;;;;;;;;;5.80;99.90;;;;;;21067917;28;19927;-79
2024/03/13 03:23:34;;;;;;;;;;;5.80;99.90;;;;;;21056615;28;19926;-77
2024/03/13 03:33:35;;;;;;;;;;;5.80;99.90;;;;;;21071825;28;19965;-79
2024/03/13 03:43:36;;;;;;;;;;;5.80;99.90;;;;;;21100638;28;19916;-77
2024/03/13 03:53:36;;;;;;;;;;;5.80;99.90;;;;;;21112253;28;19912;-79
2024/03/13 04:03:37;;;;;;;;;;;5.90;99.90;;;;;;21058390;28;19923;-79
2024/03/13 04:13:38;;;;;;;;;;;5.90;99.90;;;;;;21065067;28;20379;-80
2024/03/13 04:23:39;;;;;;;;;;;5.90;99.90;;;;;;21057554;28;19923;-79
2024/03/13 04:33:41;;;;;;;;;;;6.00;99.90;;;;;;21051171;28;19925;-79
2024/03/13 04:43:42;;;;;;;;;;;6.00;99.90;;;;;;21070549;28;19970;-79
2024/03/13 04:53:45;;;;;;;;;;;6.20;99.90;;;;;;21045480;28;19912;-78
2024/03/13 05:03:46;;;;;;;;;;;6.20;99.90;;;;;;21059229;28;19951;-78
2024/03/13 05:13:47;;;;;;;;;;;6.20;99.90;;;;;;21042851;28;19916;-78
2024/03/13 05:23:47;;;;;;;;;;;6.20;99.90;;;;;;21068563;28;19923;-78
2024/03/13 05:33:48;;;;;;;;;;;6.20;99.90;;;;;;21077660;28;19912;-78
2024/03/13 05:43:50;;;;;;;;;;;6.30;99.90;;;;;;21082366;28;19938;-78
2024/03/13 05:53:51;;;;;;;;;;;6.30;99.90;;;;;;21086499;28;19912;-78
2024/03/13 06:03:53;;;;;;;;;;;6.30;99.90;;;;;;21107055;28;19916;-78
2024/03/13 06:13:53;;;;;;;;;;;6.40;99.90;;;;;;21071152;28;19959;-78
2024/03/13 06:24:00;;;;;;;;;;;6.50;99.90;;;;;;21063545;28;20349;-78
2024/03/13 06:34:00;;;;;;;;;;;6.60;99.90;;;;;;21048611;28;20379;-79
2024/03/13 06:44:05;;;;;;;;;;;6.70;99.90;;;;;;21040361;28;19938;-79
2024/03/13 06:54:06;;;;;;;;;;;6.80;99.90;;;;;;21052349;28;19946;-78
2024/03/13 07:04:07;;;;;;;;;;;6.90;99.90;;;;;;21036257;28;19923;-79
2024/03/13 07:14:11;;;;;;;;;;;7.00;99.90;;;;;;21066719;28;19916;-79
2024/03/13 07:24:12;;;;;;;;;;;7.10;99.90;;;;;;21042258;28;19916;-79
2024/03/13 07:34:13;;;;;;;;;;;7.20;99.90;;;;;;21036666;28;19912;-79
2024/03/13 07:44:15;;;;;;;;;;;7.30;99.90;;;;;;21038404;28;19916;-80
2024/03/13 07:54:16;;;;;;;;;;;7.40;99.90;;;;;;21047404;28;19919;-79
2024/03/13 08:04:16;;;;;;;;;;;7.50;99.90;;;;;;21039098;28;19916;-78
2024/03/13 08:14:17;;;;;;;;;;;7.80;99.90;;;;;;21038319;28;19920;-77
2024/03/13 08:24:18;;;;;;;;;;;7.80;99.90;;;;;;21023282;28;19963;-77
2024/03/13 08:34:19;;;;;;;;;;;8.10;99.90;;;;;;21029234;28;19912;-78
2024/03/13 08:44:20;;;;;;;;;;;8.20;99.90;;;;;;21015384;28;20387;-78
2024/03/13 08:54:21;;;;;;;;;;;8.40;99.90;;;;;;21019520;28;20204;-79
2024/03/13 09:04:23;;;;;;;;;;;8.60;99.90;;;;;;21022777;28;20015;-79
2024/03/13 09:14:26;;;;;;;;;;;8.60;99.90;;;;;;21020065;28;19916;-79
2024/03/13 09:24:27;;;;;;;;;;;8.60;99.90;;;;;;21030727;28;19916;-79
2024/03/13 09:34:29;;;;;;;;;;;8.50;99.90;;;;;;21020632;28;19919;-78
2024/03/13 09:44:31;;;;;;;;;;;8.60;99.90;;;;;;21034805;28;19924;-79
2024/03/13 09:54:33;;;;;;;;;;;8.70;99.90;;;;;;21036553;28;20007;-79
2024/03/13 10:04:33;;;;;;;;;;;8.90;99.90;;;;;;21038296;28;19954;-79
2024/03/13 10:14:36;;;;;;;;;;;9.00;99.90;;;;;;21018729;28;20375;-78
2024/03/13 10:24:41;;;;;;;;;;;9.30;99.90;;;;;;21025443;28;19917;-78
2024/03/13 10:34:42;;;;;;;;;;;9.30;99.90;;;;;;21019126;28;20341;-77
2024/03/13 10:44:43;;;;;;;;;;;9.40;99.90;;;;;;21021976;28;19976;-79
2024/03/13 10:54:44;;;;;;;;;;;9.80;99.90;;;;;;21021595;28;19912;-79
2024/03/13 11:04:45;;;;;;;;;;;9.80;99.90;;;;;;21014813;28;19942;-79
2024/03/13 11:14:52;;;;;;;;;;;10.10;99.90;;;;;;21035273;28;19917;-78
2024/03/13 11:24:53;;;;;;;;;;;10.20;99.90;;;;;;21042986;28;20375;-79
2024/03/13 11:34:54;;;;;;;;;;;10.40;99.90;;;;;;21028865;28;19912;-79
2024/03/13 11:45:09;;;;;;;;;;;10.30;99.90;;;;;;21023858;28;20414;-78
2024/03/13 11:55:21;;;;;;;;;;;10.50;99.90;;;;;;21067109;28;19912;-78
2024/03/13 12:05:36;;;;;;;;;;;10.40;99.90;;;;;;21049217;28;20506;-78
2024/03/13 12:15:40;;;;;;;;;;;10.50;99.90;;;;;;21043397;28;19924;-78
2024/03/13 12:25:41;;;;;;;;;;;10.80;99.90;;;;;;21020965;28;19959;-78
2024/03/13 12:35:44;;;;;;;;;;;11.20;99.90;;;;;;21050031;28;19912;-78
2024/03/13 12:45:45;;;;;;;;;;;12.00;99.90;;;;;;21053230;28;19920;-77
2024/03/13 12:55:47;;;;;;;;;;;12.60;99.90;;;;;;21061108;28;20423;-78
2024/03/13 13:05:48;;;;;;;;;;;12.40;99.90;;;;;;21045387;28;19920;-78
2024/03/13 13:15:49;;;;;;;;;;;12.40;99.90;;;;;;21054689;28;19952;-78
2024/03/13 13:25:50;;;;;;;;;;;13.30;99.90;;;;;;21032108;28;19923;-78
2024/03/13 13:35:50;;;;;;;;;;;12.80;99.90;;;;;;21046767;28;19919;-79
2024/03/13 13:45:51;;;;;;;;;;;12.40;99.90;;;;;;21045805;28;19916;-78
2024/03/13 13:55:52;;;;;;;;;;;12.30;99.90;;;;;;21047704;28;19912;-78
2024/03/13 14:05:53;;;;;;;;;;;11.90;99.90;;;;;;21063940;28;19939;-79
2024/03/13 14:15:54;;;;;;;;;;;12.10;99.90;;;;;;21046991;28;20379;-79
2024/03/13 14:25:54;;;;;;;;;;;12.50;99.90;;;;;;21058806;28;20398;-79
2024/03/13 14:35:55;;;;;;;;;;;12.30;99.90;;;;;;21054457;28;19916;-79
2024/03/13 14:45:55;;;;;;;;;;;12.40;99.90;;;;;;21051150;28;20294;-77
2024/03/13 14:55:57;;;;;;;;;;;12.60;99.90;;;;;;21037638;28;19916;-77
2024/03/13 15:05:58;;;;;;;;;;;12.60;99.90;;;;;;21040767;28;19932;-77
2024/03/13 15:15:59;;;;;;;;;;;12.70;99.90;;;;;;21026927;28;19916;-78
2024/03/13 15:26:00;;;;;;;;;;;12.50;99.90;;;;;;21049906;28;19931;-78
2024/03/13 15:36:03;;;;;;;;;;;12.60;99.90;;;;;;21065055;28;19935;-77
2024/03/13 15:46:04;;;;;;;;;;;12.70;99.90;;;;;;21038505;28;19916;-78
2024/03/13 15:56:04;;;;;;;;;;;12.70;99.90;;;;;;21041016;28;19912;-78
2024/03/13 16:06:05;;;;;;;;;;;12.70;99.90;;;;;;21052415;28;20456;-78
2024/03/13 16:16:06;;;;;;;;;;;12.50;99.90;;;;;;21064731;28;19916;-78
2024/03/13 16:26:07;;;;;;;;;;;12.50;99.90;;;;;;21069844;28;19977;-78
2024/03/13 16:36:08;;;;;;;;;;;12.30;99.90;;;;;;21066422;28;20027;-78
2024/03/13 16:46:09;;;;;;;;;;;12.20;99.90;;;;;;21066698;28;20027;-78
2024/03/13 16:56:10;;;;;;;;;;;12.10;99.90;;;;;;21089376;28;20044;-78
2024/03/13 17:06:10;;;;;;;;;;;12.00;99.90;;;;;;21036483;28;20346;-78
2024/03/13 17:16:11;;;;;;;;;;;12.00;99.90;;;;;;21030267;28;19924;-77
2024/03/13 17:26:12;;;;;;;;;;;11.60;99.90;;;;;;21062971;28;20406;-77
2024/03/13 17:36:26;;;;;;;;;;;10.80;99.90;;;;;;21075362;28;19919;-77
2024/03/13 17:46:27;;;;;;;;;;;10.20;99.90;;;;;;21076484;28;20454;-77
2024/03/13 17:56:28;;;;;;;;;;;9.80;99.90;;;;;;21089311;28;19939;-77
2024/03/13 18:06:28;;;;;;;;;;;9.80;99.90;;;;;;21083258;28;19923;-78
2024/03/13 18:16:29;;;;;;;;;;;9.00;99.90;;;;;;21076714;28;19916;-78
2024/03/13 18:26:33;;;;;;;;;;;9.30;99.90;;;;;;21087539;28;19916;-78
2024/03/13 18:36:35;;;;;;;;;;;9.20;99.90;;;;;;21041558;28;20395;-79
2024/03/13 18:46:36;;;;;;;;;;;9.10;99.90;;;;;;21055215;28;20276;-78
2024/03/13 18:56:36;;;;;;;;;;;8.80;99.90;;;;;;21048176;28;19912;-78
2024/03/13 19:06:40;;;;;;;;;;;8.50;99.90;;;;;;21029915;28;19974;-77
2024/03/13 19:16:41;;;;;;;;;;;8.50;99.90;;;;;;21039185;28;19942;-77
2024/03/13 19:26:42;;;;;;;;;;;8.30;99.90;;;;;;21062951;28;19933;-77
2024/03/13 19:36:42;;;;;;;;;;;8.10;99.90;;;;;;21032325;28;19912;-77
2024/03/13 19:46:43;;;;;;;;;;;8.00;99.90;;;;;;21027881;28;19916;-78
2024/03/13 19:56:44;;;;;;;;;;;7.80;99.90;;;;;;21024701;28;19912;-78
2024/03/13 20:06:46;;;;;;;;;;;8.00;99.90;;;;;;21024520;28;20372;-77
2024/03/13 20:16:47;;;;;;;;;;;8.00;99.90;;;;;;21031008;28;19920;-77
2024/03/13 20:26:47;;;;;;;;;;;8.00;99.90;;;;;;21035717;28;19938;-77
2024/03/13 20:36:48;;;;;;;;;;;7.70;99.90;;;;;;21036606;28;20268;-77
2024/03/13 20:46:48;;;;;;;;;;;7.80;99.90;;;;;;21056201;28;19916;-77
2024/03/13 20:56:52;;;;;;;;;;;7.70;99.90;;;;;;21053708;28;20009;-77
2024/03/13 21:06:53;;;;;;;;;;;7.60;99.90;;;;;;21056546;28;20031;-77
2024/03/13 21:16:54;;;;;;;;;;;7.60;99.90;;;;;;21050849;28;19916;-77
2024/03/13 21:26:54;;;;;;;;;;;7.70;99.90;;;;;;21069105;28;19961;-78
2024/03/13 21:36:55;;;;;;;;;;;7.50;99.90;;;;;;21066388;28;19995;-79
2024/03/13 21:46:56;;;;;;;;;;;7.40;99.90;;;;;;21062909;28;19920;-77
2024/03/13 21:56:56;;;;;;;;;;;7.40;99.90;;;;;;21070429;28;20268;-78
2024/03/13 22:06:57;;;;;;;;;;;7.40;99.90;;;;;;21050487;28;19993;-78
2024/03/13 22:16:58;;;;;;;;;;;7.40;99.90;;;;;;21048722;28;20295;-77
2024/03/13 22:26:58;;;;;;;;;;;7.30;99.90;;;;;;21049557;28;19917;-78
2024/03/13 22:36:59;;;;;;;;;;;7.20;99.90;;;;;;21060799;28;19916;-78
2024/03/13 22:47:00;;;;;;;;;;;7.10;99.90;;;;;;21030560;28;19924;-78
2024/03/13 22:57:00;;;;;;;;;;;7.00;99.90;;;;;;21026167;28;20319;-78
2024/03/13 23:07:03;;;;;;;;;;;6.90;99.90;;;;;;21030263;28;19960;-77
2024/03/13 23:17:04;;;;;;;;;;;7.20;99.90;;;;;;21024664;28;20002;-77
2024/03/13 23:27:06;;;;;;;;;;;7.40;99.90;;;;;;21029564;28;19967;-77
2024/03/13 23:37:08;;;;;;;;;;;7.40;99.90;;;;;;21026260;28;19912;-77
2024/03/13 23:47:09;;;;;;;;;;;7.40;99.90;;;;;;21017807;28;19920;-77
2024/03/13 23:57:09;;;;;;;;;;;7.70;99.90;;;;;;21013517;28;20389;-77
